Ana Sayfa
METAR-TAF:

METAR-TAF

Havaalanları :

Samsun Çarşamba Havalimanı

Samsun, Türkiye

Enlem: 41-15-15N, Boylam: 036-34-03E, yükseklik: 5 m

Güncel hava durumu gözlemi

Rapor saat 10:50 UTC de 27 dakika önce yapıldı.
Rüzgar kuzey/kuzeydoğudan 7 kt, kuzey/kuzeybatı ve doğu/kuzeydoğu arasında değişken
Sıcaklık 28°C
Nem 55%
Basınç 1010 hPa
Görüş mesafesi 10 km veya daha fazla
3600 ft yükseklikte az bulutlu

METAR: LTFH 151050Z 02007KT 330V070 9999 FEW036 28/18 Q1010 NOSIG

Saat: 14:17 (11:17 UTC)

Tahmin

Rapor saat 07:40 UTC de 3 saat ve 37 dakika önce yapıldı.
Ayın 15'si saat 09 UTC'den ayın 15'si saat 18 UTC'ye kadar geçerli Tahmin
Rüzgar kuzey/kuzeydoğudan 8 kt
Görüş mesafesi 10 km veya daha fazla
3600 ft yükseklikte az bulutlu

TAF: LTFH 150740Z 1509/1518 02008KT 9999 FEW036

4.000'den fazla havaalanı için hava durumu gözlemleri ve tahminleri (METAR ve TAF raporları).

Kullanılabilir istasyonlar harita üzerinde sarı ve kırmızı noktalarla gösterilir.

İstasyonun adını görmek için fareyi noktanın üzerinde gezdirin.

Sonrasında hava gözlem ve tahminlerini görmek için tıklayın.

Haritayı değiştirmek için: yaklaştırmak için siyah artı işaretli yeşil düğmeye ve uzaklaştırmak için de eksi işaretli düğmeye hızla tıklayın; bitişik haritalar için yeşil okları kullanın.


METAR-TAF: